sensor_id;sensor_type;location;lat;lon;timestamp;pressure;altitude;pressure_sealevel;temperature;humidity
58973;BME280;44750;52.040;7.472;2023-03-19T00:01:26;100373.63;;;10.45;0.00
58973;BME280;44750;52.040;7.472;2023-03-19T00:06:26;100372.91;;;10.43;0.00
58973;BME280;44750;52.040;7.472;2023-03-19T00:11:27;100370.69;;;10.39;0.00
58973;BME280;44750;52.040;7.472;2023-03-19T00:16:27;100380.34;;;10.41;0.00
58973;BME280;44750;52.040;7.472;2023-03-19T00:21:27;100384.41;;;10.37;0.00
58973;BME280;44750;52.040;7.472;2023-03-19T00:26:28;100383.53;;;10.36;0.00
58973;BME280;44750;52.040;7.472;2023-03-19T00:31:29;100381.81;;;10.35;0.00
58973;BME280;44750;52.040;7.472;2023-03-19T00:36:29;100382.91;;;10.43;0.00
58973;BME280;44750;52.040;7.472;2023-03-19T00:41:30;100401.03;;;10.50;0.00
58973;BME280;44750;52.040;7.472;2023-03-19T00:46:30;100400.72;;;10.53;0.00
58973;BME280;44750;52.040;7.472;2023-03-19T00:51:31;100375.78;;;10.42;0.00
58973;BME280;44750;52.040;7.472;2023-03-19T00:56:31;100388.50;;;10.49;0.00
58973;BME280;44750;52.040;7.472;2023-03-19T01:01:31;100390.22;;;10.50;0.00
58973;BME280;44750;52.040;7.472;2023-03-19T01:06:31;100392.25;;;10.57;0.00
58973;BME280;44750;52.040;7.472;2023-03-19T01:11:32;100391.25;;;10.58;0.00
58973;BME280;44750;52.040;7.472;2023-03-19T01:16:32;100379.22;;;10.52;0.00
58973;BME280;44750;52.040;7.472;2023-03-19T01:21:32;100379.41;;;10.50;0.00
58973;BME280;44750;52.040;7.472;2023-03-19T01:26:33;100370.91;;;10.45;0.00
58973;BME280;44750;52.040;7.472;2023-03-19T01:31:34;100363.00;;;10.52;0.00
58973;BME280;44750;52.040;7.472;2023-03-19T01:36:34;100353.38;;;10.58;0.00
58973;BME280;44750;52.040;7.472;2023-03-19T01:41:34;100340.53;;;10.60;0.00
58973;BME280;44750;52.040;7.472;2023-03-19T01:46:38;100332.75;;;10.65;0.00
58973;BME280;44750;52.040;7.472;2023-03-19T01:51:40;100301.28;;;10.56;0.00
58973;BME280;44750;52.040;7.472;2023-03-19T01:56:45;100287.06;;;10.62;0.00
58973;BME280;44750;52.040;7.472;2023-03-19T02:01:51;100259.66;;;10.57;0.00
58973;BME280;44750;52.040;7.472;2023-03-19T02:06:55;100239.69;;;10.58;0.00
58973;BME280;44750;52.040;7.472;2023-03-19T02:11:58;100219.22;;;10.55;0.00
58973;BME280;44750;52.040;7.472;2023-03-19T02:16:59;100199.09;;;10.49;0.00
58973;BME280;44750;52.040;7.472;2023-03-19T02:22:00;100174.19;;;10.37;0.00
58973;BME280;44750;52.040;7.472;2023-03-19T02:27:01;100172.50;;;10.36;0.00
58973;BME280;44750;52.040;7.472;2023-03-19T02:32:02;100155.69;;;10.25;0.71
58973;BME280;44750;52.040;7.472;2023-03-19T02:37:07;100142.84;;;10.18;1.21
58973;BME280;44750;52.040;7.472;2023-03-19T02:42:10;100157.38;;;10.17;0.34
58973;BME280;44750;52.040;7.472;2023-03-19T02:47:10;100134.28;;;9.97;0.00
58973;BME280;44750;52.040;7.472;2023-03-19T02:52:11;100159.00;;;10.10;0.00
58973;BME280;44750;52.040;7.472;2023-03-19T02:57:11;100148.00;;;10.03;0.00
58973;BME280;44750;52.040;7.472;2023-03-19T03:02:11;100154.28;;;10.04;0.00
58973;BME280;44750;52.040;7.472;2023-03-19T03:07:12;100150.22;;;10.00;0.00
58973;BME280;44750;52.040;7.472;2023-03-19T03:12:12;100155.28;;;10.03;0.00
58973;BME280;44750;52.040;7.472;2023-03-19T03:17:12;100168.00;;;10.11;0.00
58973;BME280;44750;52.040;7.472;2023-03-19T03:22:13;100176.47;;;10.16;0.00
58973;BME280;44750;52.040;7.472;2023-03-19T03:27:13;100164.63;;;10.17;0.00
58973;BME280;44750;52.040;7.472;2023-03-19T03:32:13;100160.25;;;10.16;0.00
58973;BME280;44750;52.040;7.472;2023-03-19T03:37:14;100166.50;;;10.16;0.00
58973;BME280;44750;52.040;7.472;2023-03-19T03:42:14;100144.66;;;10.10;0.82
58973;BME280;44750;52.040;7.472;2023-03-19T03:47:14;100151.59;;;10.12;0.17
58973;BME280;44750;52.040;7.472;2023-03-19T03:52:15;100156.00;;;10.13;0.00
58973;BME280;44750;52.040;7.472;2023-03-19T03:57:15;100160.53;;;10.13;0.00
58973;BME280;44750;52.040;7.472;2023-03-19T04:02:16;100150.56;;;10.05;0.00
58973;BME280;44750;52.040;7.472;2023-03-19T04:07:17;100168.81;;;10.03;0.00
58973;BME280;44750;52.040;7.472;2023-03-19T04:12:17;100178.78;;;10.02;0.00
58973;BME280;44750;52.040;7.472;2023-03-19T04:17:17;100171.31;;;9.96;0.00
58973;BME280;44750;52.040;7.472;2023-03-19T04:22:17;100200.34;;;9.94;0.00
58973;BME280;44750;52.040;7.472;2023-03-19T04:27:17;100209.13;;;9.88;0.00
58973;BME280;44750;52.040;7.472;2023-03-19T04:32:18;100221.28;;;9.84;0.00
58973;BME280;44750;52.040;7.472;2023-03-19T04:37:18;100253.91;;;9.91;0.00
58973;BME280;44750;52.040;7.472;2023-03-19T04:42:18;100267.44;;;9.91;0.00
58973;BME280;44750;52.040;7.472;2023-03-19T04:47:19;100288.28;;;9.98;0.00
58973;BME280;44750;52.040;7.472;2023-03-19T04:52:19;100307.03;;;10.00;0.00
58973;BME280;44750;52.040;7.472;2023-03-19T04:57:19;100323.09;;;10.01;0.00
58973;BME280;44750;52.040;7.472;2023-03-19T05:02:20;100344.56;;;10.03;0.00
58973;BME280;44750;52.040;7.472;2023-03-19T05:07:20;100371.66;;;10.11;0.00
58973;BME280;44750;52.040;7.472;2023-03-19T05:12:20;100363.88;;;10.08;0.00
58973;BME280;44750;52.040;7.472;2023-03-19T05:17:20;100391.97;;;10.15;0.00
58973;BME280;44750;52.040;7.472;2023-03-19T05:22:20;100386.56;;;10.15;0.00
58973;BME280;44750;52.040;7.472;2023-03-19T05:27:21;100398.75;;;10.19;0.00
58973;BME280;44750;52.040;7.472;2023-03-19T05:32:21;100408.63;;;10.29;0.00
58973;BME280;44750;52.040;7.472;2023-03-19T05:37:21;100412.03;;;10.31;0.00
58973;BME280;44750;52.040;7.472;2023-03-19T05:42:21;100398.13;;;10.26;0.00
58973;BME280;44750;52.040;7.472;2023-03-19T05:47:24;100388.47;;;10.23;0.00
58973;BME280;44750;52.040;7.472;2023-03-19T05:52:25;100387.66;;;10.23;0.00
58973;BME280;44750;52.040;7.472;2023-03-19T05:57:25;100377.81;;;10.21;0.00
58973;BME280;44750;52.040;7.472;2023-03-19T06:02:26;100375.34;;;10.28;0.00
58973;BME280;44750;52.040;7.472;2023-03-19T06:07:26;100377.41;;;10.34;0.00
58973;BME280;44750;52.040;7.472;2023-03-19T06:12:26;100363.75;;;10.36;0.00
58973;BME280;44750;52.040;7.472;2023-03-19T06:17:26;100355.06;;;10.32;0.00
58973;BME280;44750;52.040;7.472;2023-03-19T06:22:27;100372.06;;;10.43;0.00
58973;BME280;44750;52.040;7.472;2023-03-19T06:27:27;100346.50;;;10.37;0.00
58973;BME280;44750;52.040;7.472;2023-03-19T06:32:27;100353.16;;;10.51;0.00
58973;BME280;44750;52.040;7.472;2023-03-19T06:37:27;100348.97;;;10.57;0.00
58973;BME280;44750;52.040;7.472;2023-03-19T06:42:28;100345.63;;;10.63;0.00
58973;BME280;44750;52.040;7.472;2023-03-19T06:47:28;100330.38;;;10.62;0.00
58973;BME280;44750;52.040;7.472;2023-03-19T06:52:28;100329.22;;;10.73;0.00
58973;BME280;44750;52.040;7.472;2023-03-19T06:57:29;100330.47;;;10.86;0.77
58973;BME280;44750;52.040;7.472;2023-03-19T07:02:29;100319.84;;;10.93;2.68
58973;BME280;44750;52.040;7.472;2023-03-19T07:07:29;100317.31;;;11.00;3.96
58973;BME280;44750;52.040;7.472;2023-03-19T07:12:29;100298.84;;;10.95;4.47
58973;BME280;44750;52.040;7.472;2023-03-19T07:17:30;100304.63;;;11.09;4.22
58973;BME280;44750;52.040;7.472;2023-03-19T07:22:30;100325.50;;;11.33;3.04
58973;BME280;44750;52.040;7.472;2023-03-19T07:27:30;100335.34;;;11.50;3.38
58973;BME280;44750;52.040;7.472;2023-03-19T07:32:30;100371.63;;;11.82;1.39
58973;BME280;44750;52.040;7.472;2023-03-19T07:37:30;100354.16;;;12.10;1.01
58973;BME280;44750;52.040;7.472;2023-03-19T07:42:32;100335.66;;;12.13;2.00
58973;BME280;44750;52.040;7.472;2023-03-19T07:47:32;100283.47;;;11.86;4.98
58973;BME280;44750;52.040;7.472;2023-03-19T07:52:33;100275.69;;;11.67;4.44
58973;BME280;44750;52.040;7.472;2023-03-19T07:57:33;100290.09;;;11.67;0.52
58973;BME280;44750;52.040;7.472;2023-03-19T08:02:33;100334.84;;;11.80;0.00
58973;BME280;44750;52.040;7.472;2023-03-19T08:07:34;100348.88;;;11.83;0.00
58973;BME280;44750;52.040;7.472;2023-03-19T08:12:34;100392.31;;;12.00;0.00
58973;BME280;44750;52.040;7.472;2023-03-19T08:17:35;100403.84;;;12.10;0.00
58973;BME280;44750;52.040;7.472;2023-03-19T08:22:36;100387.88;;;11.91;0.00
58973;BME280;44750;52.040;7.472;2023-03-19T08:27:36;100401.09;;;11.85;0.00
58973;BME280;44750;52.040;7.472;2023-03-19T08:32:37;100425.50;;;11.85;0.00
58973;BME280;44750;52.040;7.472;2023-03-19T08:37:37;100466.56;;;11.99;0.00
58973;BME280;44750;52.040;7.472;2023-03-19T08:42:37;100451.63;;;11.86;0.00
58973;BME280;44750;52.040;7.472;2023-03-19T08:47:38;100502.53;;;12.09;0.00
58973;BME280;44750;52.040;7.472;2023-03-19T08:52:38;100525.41;;;12.31;0.00
58973;BME280;44750;52.040;7.472;2023-03-19T08:57:39;100526.63;;;12.53;0.00
58973;BME280;44750;52.040;7.472;2023-03-19T09:02:39;100529.31;;;12.62;0.00
58973;BME280;44750;52.040;7.472;2023-03-19T09:07:39;100556.72;;;13.33;0.00
58973;BME280;44750;52.040;7.472;2023-03-19T09:12:39;100483.50;;;13.23;0.00
58973;BME280;44750;52.040;7.472;2023-03-19T09:17:40;100424.66;;;12.99;0.00
58973;BME280;44750;52.040;7.472;2023-03-19T09:22:40;100398.56;;;12.90;0.00
58973;BME280;44750;52.040;7.472;2023-03-19T09:27:40;100375.69;;;12.76;3.22
58973;BME280;44750;52.040;7.472;2023-03-19T09:32:40;100361.25;;;12.75;4.60
58973;BME280;44750;52.040;7.472;2023-03-19T09:37:41;100358.53;;;12.75;5.62
58973;BME280;44750;52.040;7.472;2023-03-19T09:47:57;100366.09;;;12.96;5.54
58973;BME280;44750;52.040;7.472;2023-03-19T09:53:07;100388.56;;;13.53;6.68
58973;BME280;44750;52.040;7.472;2023-03-19T09:58:30;100361.84;;;13.57;12.61
58973;BME280;44750;52.040;7.472;2023-03-19T10:19:00;100243.03;;;14.10;38.23
58973;BME280;44750;52.040;7.472;2023-03-19T10:24:23;100207.34;;;14.05;42.35
58973;BME280;44750;52.040;7.472;2023-03-19T10:29:26;100181.63;;;13.78;46.66
58973;BME280;44750;52.040;7.472;2023-03-19T10:34:32;100162.97;;;13.60;47.16
58973;BME280;44750;52.040;7.472;2023-03-19T10:39:35;100195.91;;;13.95;44.43
58973;BME280;44750;52.040;7.472;2023-03-19T10:44:42;100166.63;;;13.82;46.71
58973;BME280;44750;52.040;7.472;2023-03-19T10:49:45;100198.69;;;14.16;46.51
58973;BME280;44750;52.040;7.472;2023-03-19T10:54:45;100209.81;;;14.66;48.14
58973;BME280;44750;52.040;7.472;2023-03-19T10:59:45;100119.69;;;14.46;58.77
58973;BME280;44750;52.040;7.472;2023-03-19T11:04:45;100089.97;;;14.30;64.31
58973;BME280;44750;52.040;7.472;2023-03-19T11:09:47;100084.25;;;14.25;64.86
58973;BME280;44750;52.040;7.472;2023-03-19T11:14:50;100087.25;;;14.30;64.43
58973;BME280;44750;52.040;7.472;2023-03-19T11:19:55;100092.13;;;14.34;64.51
58973;BME280;44750;52.040;7.472;2023-03-19T11:24:56;100068.31;;;14.43;65.69
58973;BME280;44750;52.040;7.472;2023-03-19T11:29:59;100095.72;;;14.78;66.92
58973;BME280;44750;52.040;7.472;2023-03-19T11:35:20;100075.03;;;15.12;71.39
58973;BME280;44750;52.040;7.472;2023-03-19T11:51:58;99975.78;;;15.00;88.60
58973;BME280;44750;52.040;7.472;2023-03-19T12:28:29;99847.09;;;15.18;100.00
58973;BME280;44750;52.040;7.472;2023-03-19T12:39:12;99869.19;;;14.81;100.00
58973;BME280;44750;52.040;7.472;2023-03-19T12:44:20;99864.56;;;14.82;100.00
58973;BME280;44750;52.040;7.472;2023-03-19T12:49:51;99896.28;;;14.61;100.00
58973;BME280;44750;52.040;7.472;2023-03-19T12:55:05;99958.94;;;14.90;96.31
58973;BME280;44750;52.040;7.472;2023-03-19T13:00:42;99961.31;;;14.71;92.73
58973;BME280;44750;52.040;7.472;2023-03-19T13:05:54;99982.41;;;14.41;87.71
58973;BME280;44750;52.040;7.472;2023-03-19T13:10:57;100024.50;;;14.60;80.73
58973;BME280;44750;52.040;7.472;2023-03-19T13:16:49;100085.06;;;15.40;75.39
58973;BME280;44750;52.040;7.472;2023-03-19T13:21:29;100004.13;;;15.47;83.71
58973;BME280;44750;52.040;7.472;2023-03-19T13:26:32;99906.03;;;15.19;93.09
58973;BME280;44750;52.040;7.472;2023-03-19T13:31:35;99881.16;;;15.29;99.94
58973;BME280;44750;52.040;7.472;2023-03-19T13:36:39;99880.97;;;15.37;100.00
58973;BME280;44750;52.040;7.472;2023-03-19T13:46:41;99870.13;;;15.77;100.00
58973;BME280;44750;52.040;7.472;2023-03-19T13:51:46;99867.22;;;16.12;100.00
58973;BME280;44750;52.040;7.472;2023-03-19T14:02:00;99836.78;;;16.22;100.00
58973;BME280;44750;52.040;7.472;2023-03-19T14:28:09;99775.41;;;16.31;100.00
58973;BME280;44750;52.040;7.472;2023-03-19T14:33:21;99788.84;;;16.46;100.00
58973;BME280;44750;52.040;7.472;2023-03-19T14:38:35;99750.97;;;16.57;100.00
58973;BME280;44750;52.040;7.472;2023-03-19T14:54:46;99780.50;;;16.14;100.00
58973;BME280;44750;52.040;7.472;2023-03-19T14:59:48;99792.44;;;16.27;100.00
58973;BME280;44750;52.040;7.472;2023-03-19T15:04:49;99774.19;;;16.07;100.00
58973;BME280;44750;52.040;7.472;2023-03-19T15:09:53;99780.91;;;16.11;100.00
58973;BME280;44750;52.040;7.472;2023-03-19T15:20:20;99755.97;;;15.94;100.00
58973;BME280;44750;52.040;7.472;2023-03-19T15:25:21;99801.50;;;16.14;100.00
58973;BME280;44750;52.040;7.472;2023-03-19T15:30:24;99763.72;;;15.97;100.00
58973;BME280;44750;52.040;7.472;2023-03-19T15:35:28;99787.88;;;15.87;100.00
58973;BME280;44750;52.040;7.472;2023-03-19T15:40:31;99784.69;;;15.77;100.00
58973;BME280;44750;52.040;7.472;2023-03-19T15:45:32;99790.78;;;15.52;100.00
58973;BME280;44750;52.040;7.472;2023-03-19T15:50:36;99824.97;;;15.41;100.00
58973;BME280;44750;52.040;7.472;2023-03-19T15:55:39;99871.72;;;15.45;100.00
58973;BME280;44750;52.040;7.472;2023-03-19T16:00:40;99893.75;;;15.43;100.00
58973;BME280;44750;52.040;7.472;2023-03-19T16:05:40;99903.84;;;15.49;100.00
58973;BME280;44750;52.040;7.472;2023-03-19T16:10:42;99900.91;;;15.51;100.00
58973;BME280;44750;52.040;7.472;2023-03-19T16:15:43;99897.16;;;15.59;100.00
58973;BME280;44750;52.040;7.472;2023-03-19T16:20:58;99903.44;;;15.59;100.00
58973;BME280;44750;52.040;7.472;2023-03-19T16:26:35;99887.50;;;15.49;100.00
58973;BME280;44750;52.040;7.472;2023-03-19T16:31:44;99909.13;;;15.58;100.00
58973;BME280;44750;52.040;7.472;2023-03-19T16:36:45;99890.03;;;15.58;100.00
58973;BME280;44750;52.040;7.472;2023-03-19T16:42:42;99871.94;;;15.43;100.00
58973;BME280;44750;52.040;7.472;2023-03-19T16:47:17;99857.22;;;15.31;100.00
58973;BME280;44750;52.040;7.472;2023-03-19T16:52:19;99824.28;;;15.26;100.00
58973;BME280;44750;52.040;7.472;2023-03-19T16:57:21;99842.72;;;15.17;100.00
58973;BME280;44750;52.040;7.472;2023-03-19T17:02:21;99877.50;;;15.08;100.00
58973;BME280;44750;52.040;7.472;2023-03-19T17:07:22;99863.38;;;14.98;100.00
58973;BME280;44750;52.040;7.472;2023-03-19T17:12:22;99853.31;;;14.92;100.00
58973;BME280;44750;52.040;7.472;2023-03-19T17:17:22;99878.00;;;14.83;100.00
58973;BME280;44750;52.040;7.472;2023-03-19T17:22:22;99888.06;;;14.83;100.00
58973;BME280;44750;52.040;7.472;2023-03-19T17:27:23;99887.41;;;14.74;100.00
58973;BME280;44750;52.040;7.472;2023-03-19T17:32:23;99879.63;;;14.43;100.00
58973;BME280;44750;52.040;7.472;2023-03-19T17:37:25;99927.91;;;14.34;100.00
58973;BME280;44750;52.040;7.472;2023-03-19T17:42:28;99912.28;;;14.14;100.00
58973;BME280;44750;52.040;7.472;2023-03-19T17:47:28;99972.03;;;14.01;100.00
58973;BME280;44750;52.040;7.472;2023-03-19T17:52:28;100003.94;;;13.92;100.00
58973;BME280;44750;52.040;7.472;2023-03-19T17:57:28;100048.44;;;13.84;100.00
58973;BME280;44750;52.040;7.472;2023-03-19T18:02:31;100072.53;;;13.73;100.00
58973;BME280;44750;52.040;7.472;2023-03-19T18:07:36;100096.31;;;13.64;100.00
58973;BME280;44750;52.040;7.472;2023-03-19T18:12:38;100090.09;;;13.40;100.00
58973;BME280;44750;52.040;7.472;2023-03-19T18:17:40;100122.34;;;13.43;100.00
58973;BME280;44750;52.040;7.472;2023-03-19T18:22:43;100133.00;;;13.30;100.00
58973;BME280;44750;52.040;7.472;2023-03-19T18:27:45;100170.66;;;13.41;100.00
58973;BME280;44750;52.040;7.472;2023-03-19T18:32:49;100180.19;;;13.37;100.00
58973;BME280;44750;52.040;7.472;2023-03-19T18:37:51;100190.38;;;13.35;100.00
58973;BME280;44750;52.040;7.472;2023-03-19T18:42:52;100190.25;;;13.28;100.00
58973;BME280;44750;52.040;7.472;2023-03-19T18:47:52;100199.09;;;13.07;100.00
58973;BME280;44750;52.040;7.472;2023-03-19T18:52:53;100201.94;;;12.91;100.00
58973;BME280;44750;52.040;7.472;2023-03-19T18:57:56;100214.91;;;12.80;100.00
58973;BME280;44750;52.040;7.472;2023-03-19T19:02:58;100204.22;;;12.56;100.00
58973;BME280;44750;52.040;7.472;2023-03-19T19:08:00;100223.94;;;12.49;100.00
58973;BME280;44750;52.040;7.472;2023-03-19T19:13:01;100229.13;;;12.19;100.00
58973;BME280;44750;52.040;7.472;2023-03-19T19:18:14;100224.97;;;12.00;100.00
58973;BME280;44750;52.040;7.472;2023-03-19T19:23:15;100242.81;;;11.78;98.60
58973;BME280;44750;52.040;7.472;2023-03-19T19:28:28;100259.44;;;11.59;87.85
58973;BME280;44750;52.040;7.472;2023-03-19T19:33:33;100314.66;;;11.66;75.20
58973;BME280;44750;52.040;7.472;2023-03-19T19:38:33;100317.03;;;11.61;68.31
58973;BME280;44750;52.040;7.472;2023-03-19T19:43:33;100352.63;;;11.66;62.86
58973;BME280;44750;52.040;7.472;2023-03-19T19:48:34;100366.16;;;11.49;60.75
58973;BME280;44750;52.040;7.472;2023-03-19T19:53:34;100382.09;;;11.52;57.06
58973;BME280;44750;52.040;7.472;2023-03-19T19:58:34;100398.03;;;11.56;55.37
58973;BME280;44750;52.040;7.472;2023-03-19T20:03:34;100391.56;;;11.40;55.08
58973;BME280;44750;52.040;7.472;2023-03-19T20:08:35;100383.25;;;11.25;53.94
58973;BME280;44750;52.040;7.472;2023-03-19T20:13:35;100411.50;;;11.23;51.61
58973;BME280;44750;52.040;7.472;2023-03-19T20:18:35;100441.31;;;11.23;50.87
58973;BME280;44750;52.040;7.472;2023-03-19T20:23:35;100445.66;;;11.15;52.20
58973;BME280;44750;52.040;7.472;2023-03-19T20:28:36;100454.13;;;11.12;52.45
58973;BME280;44750;52.040;7.472;2023-03-19T20:33:36;100469.13;;;11.33;52.09
58973;BME280;44750;52.040;7.472;2023-03-19T20:38:36;100471.84;;;11.33;54.91
58973;BME280;44750;52.040;7.472;2023-03-19T20:43:36;100435.50;;;11.09;59.18
58973;BME280;44750;52.040;7.472;2023-03-19T20:48:37;100423.50;;;10.77;62.74
58973;BME280;44750;52.040;7.472;2023-03-19T20:53:37;100427.56;;;10.47;63.07
58973;BME280;44750;52.040;7.472;2023-03-19T20:58:37;100465.84;;;10.52;62.35
58973;BME280;44750;52.040;7.472;2023-03-19T21:03:37;100484.34;;;10.65;61.21
58973;BME280;44750;52.040;7.472;2023-03-19T21:08:40;100476.00;;;10.58;62.37
58973;BME280;44750;52.040;7.472;2023-03-19T21:13:41;100469.16;;;10.46;63.83
58973;BME280;44750;52.040;7.472;2023-03-19T21:18:41;100445.22;;;10.15;64.36
58973;BME280;44750;52.040;7.472;2023-03-19T21:23:55;100477.69;;;10.15;62.76
58973;BME280;44750;52.040;7.472;2023-03-19T21:29:02;100493.44;;;10.19;60.00
58973;BME280;44750;52.040;7.472;2023-03-19T21:34:03;100506.44;;;10.16;58.46
58973;BME280;44750;52.040;7.472;2023-03-19T21:39:04;100466.94;;;10.23;56.60
58973;BME280;44750;52.040;7.472;2023-03-19T21:44:06;100477.91;;;10.21;56.55
58973;BME280;44750;52.040;7.472;2023-03-19T21:49:10;100499.06;;;10.26;55.85
58973;BME280;44750;52.040;7.472;2023-03-19T21:54:11;100504.50;;;10.44;54.13
58973;BME280;44750;52.040;7.472;2023-03-19T21:59:18;100483.84;;;10.43;56.25
58973;BME280;44750;52.040;7.472;2023-03-19T22:04:18;100482.00;;;10.26;58.60
58973;BME280;44750;52.040;7.472;2023-03-19T22:09:19;100474.59;;;10.10;60.62
58973;BME280;44750;52.040;7.472;2023-03-19T22:14:24;100503.19;;;10.12;59.72
58973;BME280;44750;52.040;7.472;2023-03-19T22:19:25;100502.47;;;10.10;60.38
58973;BME280;44750;52.040;7.472;2023-03-19T22:24:25;100497.88;;;10.02;61.96
58973;BME280;44750;52.040;7.472;2023-03-19T22:29:26;100497.47;;;9.97;63.39
58973;BME280;44750;52.040;7.472;2023-03-19T22:34:27;100489.06;;;9.82;65.25
58973;BME280;44750;52.040;7.472;2023-03-19T22:39:27;100484.47;;;9.65;66.12
58973;BME280;44750;52.040;7.472;2023-03-19T22:44:29;100492.81;;;9.53;66.22
58973;BME280;44750;52.040;7.472;2023-03-19T22:49:30;100501.50;;;9.47;65.47
58973;BME280;44750;52.040;7.472;2023-03-19T22:54:30;100534.81;;;9.66;63.44
58973;BME280;44750;52.040;7.472;2023-03-19T22:59:30;100536.53;;;9.67;63.46
58973;BME280;44750;52.040;7.472;2023-03-19T23:04:32;100515.09;;;9.56;63.81
58973;BME280;44750;52.040;7.472;2023-03-19T23:09:34;100503.03;;;9.32;65.46
58973;BME280;44750;52.040;7.472;2023-03-19T23:14:34;100538.09;;;9.42;63.59
58973;BME280;44750;52.040;7.472;2023-03-19T23:19:36;100520.97;;;9.23;64.78
58973;BME280;44750;52.040;7.472;2023-03-19T23:24:36;100547.41;;;9.29;64.90
58973;BME280;44750;52.040;7.472;2023-03-19T23:29:40;100567.34;;;9.18;63.32
58973;BME280;44750;52.040;7.472;2023-03-19T23:34:42;100593.00;;;9.32;60.23
58973;BME280;44750;52.040;7.472;2023-03-19T23:39:42;100606.09;;;9.37;57.76
58973;BME280;44750;52.040;7.472;2023-03-19T23:44:43;100612.75;;;9.43;56.65
58973;BME280;44750;52.040;7.472;2023-03-19T23:49:44;100612.28;;;9.47;55.09
58973;BME280;44750;52.040;7.472;2023-03-19T23:54:44;100645.94;;;9.63;54.02
58973;BME280;44750;52.040;7.472;2023-03-19T23:59:46;100630.03;;;9.60;54.15
